Point Lookout, Missouri
Current Conditions -  °F | °C
As of 7:45 AM on Wednesday 26 Nov 2014 (Local Time) from KBBG Reporting Station
Overcast Overcast  
Wind Chill: 37°   Ceiling: 5000
Heat Index: 37°   Visibility: 10mi
Dew Point: 25°   Wind: 3mph
Humidity: 60%   Direction: 180°S
Pressure: 29.97"   Gusts: NA
Location:  36.62°N, 93.24°W
Report Text: KBBG 261345Z 18003KT 10SM OVC050 03/M04 A2997
Loading
Personal Weather Stations






























Interactive Weather Map New forecast layout! Learn more

10-Day Weather Forecast

Advertisements
Track Severe Weather on mobile